Airfield :
LOGIN :

Register | Disclaimer

   EN    FR    IT 

 










Legend :    VFR   Marginal VFR   IFR   Intensive IFR   Very Intensive IFR
Visi :
Ceiling :
>= 8 km
>= 3000ft
5 to 8 km
1000 to 3000 ft
1500m to 5 km
500 to 1000 ft
800 to 1500m
200 to 500 ft
< 800m
< 200 ft
Symbols :   Thunderstorms  Fog  Heavy snow  Heavy precipitations  Wind > 20 kt
SIGMETs :     Misc.  Thunderstorms  Icing  Turbulence  Mountain Waves  Volcanic Ashes






- Airport Elevation : 348 ft
- IATA code : STN


EGSS - London Stansted

CURRENT METAR :
  • 280650Z AUTO 18004KT 0350 R22/1100D FG VV/// 05/05 Q1008

EXPIRED METARs :
  • 280550Z AUTO 22005KT 0150 R22/0400N FG VV/// 06/06 Q1007
  • 280520Z AUTO 22007KT 0250 FG VV/// 07/07 Q1007
  • 280450Z AUTO 22008KT 0300 FG VV/// 07/07 Q1007

TAF TAF EGSS
Valid from the 28 at 06:00 until the 29 at 12:00 UTC


280453Z 2806/2912 19004KT 7000 FEW008
TEMPO 2806/2809 0300 FG VV///
BECMG 2809/2812 9999
BECMG 2819/2821 6000
PROB30
TEMPO 2821/2824 0300 FG VV///
BECMG 2900/2903 4000 BR
TEMPO 2900/2910 0300 FG VV///
BECMG 2910/2912 9999 NSW
ATIS : +44 1279 669 325



MET'MAP, your aeronautical weather chart ! - Copyright ORBIFLY December 2007 - Disclaimer

ORBIFLY MET'MAP TEAM :

Programming & Development : Alexandra Zaïnal
Original concept : Baudouin d'Aumeries
Technical & hardware support : Manuel Goepfert
Assistance : Marc-Olivier Méhu




SOURCES & CREDITS :

   NOAA